sensor_id;sensor_type;location;lat;lon;timestamp;temperature;humidity
66271;DHT22;53063;39.614;8.814;2023-11-21T00:00:31;14.70;99.90
66271;DHT22;53063;39.614;8.814;2023-11-21T00:02:57;14.80;99.90
66271;DHT22;53063;39.614;8.814;2023-11-21T00:05:23;14.80;99.90
66271;DHT22;53063;39.614;8.814;2023-11-21T00:07:49;14.90;99.90
66271;DHT22;53063;39.614;8.814;2023-11-21T00:10:15;15.00;99.90
66271;DHT22;53063;39.614;8.814;2023-11-21T00:12:41;15.10;99.90
66271;DHT22;53063;39.614;8.814;2023-11-21T00:15:08;15.00;99.90
66271;DHT22;53063;39.614;8.814;2023-11-21T00:17:37;15.10;99.90
66271;DHT22;53063;39.614;8.814;2023-11-21T00:20:07;15.00;99.90
66271;DHT22;53063;39.614;8.814;2023-11-21T00:22:34;15.10;99.90
66271;DHT22;53063;39.614;8.814;2023-11-21T00:25:01;15.20;99.90
66271;DHT22;53063;39.614;8.814;2023-11-21T00:27:29;15.20;99.90
66271;DHT22;53063;39.614;8.814;2023-11-21T00:29:55;15.10;99.90
66271;DHT22;53063;39.614;8.814;2023-11-21T00:32:21;15.00;99.90
66271;DHT22;53063;39.614;8.814;2023-11-21T00:34:47;15.10;99.90
66271;DHT22;53063;39.614;8.814;2023-11-21T00:37:13;15.10;99.90
66271;DHT22;53063;39.614;8.814;2023-11-21T00:39:39;15.10;99.90
66271;DHT22;53063;39.614;8.814;2023-11-21T00:42:06;15.20;99.90
66271;DHT22;53063;39.614;8.814;2023-11-21T00:44:32;15.20;99.90
66271;DHT22;53063;39.614;8.814;2023-11-21T00:46:59;15.10;99.90
66271;DHT22;53063;39.614;8.814;2023-11-21T00:49:25;14.90;99.90
66271;DHT22;53063;39.614;8.814;2023-11-21T00:51:51;14.70;99.90
66271;DHT22;53063;39.614;8.814;2023-11-21T00:54:17;14.60;99.90
66271;DHT22;53063;39.614;8.814;2023-11-21T00:56:43;14.60;99.90
66271;DHT22;53063;39.614;8.814;2023-11-21T00:59:09;14.60;99.90
66271;DHT22;53063;39.614;8.814;2023-11-21T01:01:36;14.60;99.90
66271;DHT22;53063;39.614;8.814;2023-11-21T01:04:04;14.50;99.90
66271;DHT22;53063;39.614;8.814;2023-11-21T01:06:33;14.40;99.90
66271;DHT22;53063;39.614;8.814;2023-11-21T01:08:59;14.30;99.90
66271;DHT22;53063;39.614;8.814;2023-11-21T01:11:25;14.20;99.90
66271;DHT22;53063;39.614;8.814;2023-11-21T01:13:52;14.00;99.90
66271;DHT22;53063;39.614;8.814;2023-11-21T01:16:19;13.80;99.90
66271;DHT22;53063;39.614;8.814;2023-11-21T01:18:44;13.70;99.90
66271;DHT22;53063;39.614;8.814;2023-11-21T01:21:12;13.60;99.90
66271;DHT22;53063;39.614;8.814;2023-11-21T01:23:38;13.60;99.90
66271;DHT22;53063;39.614;8.814;2023-11-21T01:26:03;13.50;99.90
66271;DHT22;53063;39.614;8.814;2023-11-21T01:28:29;13.40;99.90
66271;DHT22;53063;39.614;8.814;2023-11-21T01:30:55;13.30;99.90
66271;DHT22;53063;39.614;8.814;2023-11-21T01:33:22;13.30;99.90
66271;DHT22;53063;39.614;8.814;2023-11-21T01:35:51;13.30;99.90
66271;DHT22;53063;39.614;8.814;2023-11-21T01:38:20;13.20;99.90
66271;DHT22;53063;39.614;8.814;2023-11-21T01:40:46;13.20;99.90
66271;DHT22;53063;39.614;8.814;2023-11-21T01:43:12;13.20;99.90
66271;DHT22;53063;39.614;8.814;2023-11-21T01:45:38;13.20;99.90
66271;DHT22;53063;39.614;8.814;2023-11-21T01:48:05;13.20;99.90
66271;DHT22;53063;39.614;8.814;2023-11-21T01:50:32;13.20;99.90
66271;DHT22;53063;39.614;8.814;2023-11-21T01:52:59;13.10;99.90
66271;DHT22;53063;39.614;8.814;2023-11-21T01:55:26;13.10;99.90
66271;DHT22;53063;39.614;8.814;2023-11-21T01:57:54;12.90;99.90
66271;DHT22;53063;39.614;8.814;2023-11-21T02:00:21;12.90;99.90
66271;DHT22;53063;39.614;8.814;2023-11-21T02:02:48;12.90;99.90
66271;DHT22;53063;39.614;8.814;2023-11-21T02:05:18;13.00;99.90
66271;DHT22;53063;39.614;8.814;2023-11-21T02:07:45;13.00;99.90
66271;DHT22;53063;39.614;8.814;2023-11-21T02:10:14;13.10;99.90
66271;DHT22;53063;39.614;8.814;2023-11-21T02:12:44;13.00;99.90
66271;DHT22;53063;39.614;8.814;2023-11-21T02:15:16;13.00;99.90
66271;DHT22;53063;39.614;8.814;2023-11-21T02:17:46;13.00;99.90
66271;DHT22;53063;39.614;8.814;2023-11-21T02:20:13;13.10;99.90
66271;DHT22;53063;39.614;8.814;2023-11-21T02:22:53;13.00;99.90
66271;DHT22;53063;39.614;8.814;2023-11-21T02:25:27;13.00;99.90
66271;DHT22;53063;39.614;8.814;2023-11-21T02:27:57;13.00;99.90
66271;DHT22;53063;39.614;8.814;2023-11-21T02:30:23;13.00;99.90
66271;DHT22;53063;39.614;8.814;2023-11-21T02:32:51;12.90;99.90
66271;DHT22;53063;39.614;8.814;2023-11-21T02:35:22;12.90;99.90
66271;DHT22;53063;39.614;8.814;2023-11-21T02:37:49;12.80;99.90
66271;DHT22;53063;39.614;8.814;2023-11-21T02:40:16;12.80;99.90
66271;DHT22;53063;39.614;8.814;2023-11-21T02:42:49;12.70;99.90
66271;DHT22;53063;39.614;8.814;2023-11-21T02:45:20;12.80;99.90
66271;DHT22;53063;39.614;8.814;2023-11-21T02:47:47;12.70;99.90
66271;DHT22;53063;39.614;8.814;2023-11-21T02:50:13;12.70;99.90
66271;DHT22;53063;39.614;8.814;2023-11-21T02:52:39;12.80;99.90
66271;DHT22;53063;39.614;8.814;2023-11-21T02:55:08;12.80;99.90
66271;DHT22;53063;39.614;8.814;2023-11-21T02:57:34;12.80;99.90
66271;DHT22;53063;39.614;8.814;2023-11-21T03:00:00;12.90;99.90
66271;DHT22;53063;39.614;8.814;2023-11-21T03:02:26;13.00;99.90
66271;DHT22;53063;39.614;8.814;2023-11-21T03:04:52;13.00;99.90
66271;DHT22;53063;39.614;8.814;2023-11-21T03:07:18;13.10;99.90
66271;DHT22;53063;39.614;8.814;2023-11-21T03:09:45;13.20;99.90
66271;DHT22;53063;39.614;8.814;2023-11-21T03:12:11;13.20;99.90
66271;DHT22;53063;39.614;8.814;2023-11-21T03:14:41;13.10;99.90
66271;DHT22;53063;39.614;8.814;2023-11-21T03:17:07;13.20;99.90
66271;DHT22;53063;39.614;8.814;2023-11-21T03:19:33;13.20;99.90
66271;DHT22;53063;39.614;8.814;2023-11-21T03:21:59;13.20;99.90
66271;DHT22;53063;39.614;8.814;2023-11-21T03:24:25;13.10;99.90
66271;DHT22;53063;39.614;8.814;2023-11-21T03:26:52;13.20;99.90
66271;DHT22;53063;39.614;8.814;2023-11-21T03:29:18;13.20;99.90
66271;DHT22;53063;39.614;8.814;2023-11-21T03:31:44;13.20;99.90
66271;DHT22;53063;39.614;8.814;2023-11-21T03:34:15;13.20;99.90
66271;DHT22;53063;39.614;8.814;2023-11-21T03:36:41;13.20;99.90
66271;DHT22;53063;39.614;8.814;2023-11-21T03:39:07;13.40;99.90
66271;DHT22;53063;39.614;8.814;2023-11-21T03:41:33;13.40;99.90
66271;DHT22;53063;39.614;8.814;2023-11-21T03:43:59;13.40;99.90
66271;DHT22;53063;39.614;8.814;2023-11-21T03:46:25;13.40;99.90
66271;DHT22;53063;39.614;8.814;2023-11-21T03:48:51;13.50;99.90
66271;DHT22;53063;39.614;8.814;2023-11-21T03:51:17;13.40;99.90
66271;DHT22;53063;39.614;8.814;2023-11-21T03:53:43;13.50;99.90
66271;DHT22;53063;39.614;8.814;2023-11-21T03:56:09;13.60;99.90
66271;DHT22;53063;39.614;8.814;2023-11-21T03:58:35;13.60;99.90
66271;DHT22;53063;39.614;8.814;2023-11-21T04:01:01;13.60;99.90
66271;DHT22;53063;39.614;8.814;2023-11-21T04:03:27;13.60;99.90
66271;DHT22;53063;39.614;8.814;2023-11-21T04:05:53;13.70;99.90
66271;DHT22;53063;39.614;8.814;2023-11-21T04:08:18;13.70;99.90
66271;DHT22;53063;39.614;8.814;2023-11-21T04:10:44;13.70;99.90
66271;DHT22;53063;39.614;8.814;2023-11-21T04:13:10;13.70;99.90
66271;DHT22;53063;39.614;8.814;2023-11-21T04:15:36;13.70;99.90
66271;DHT22;53063;39.614;8.814;2023-11-21T04:18:02;13.70;99.90
66271;DHT22;53063;39.614;8.814;2023-11-21T04:20:28;13.70;99.90
66271;DHT22;53063;39.614;8.814;2023-11-21T04:22:54;13.70;99.90
66271;DHT22;53063;39.614;8.814;2023-11-21T04:25:20;13.70;99.90
66271;DHT22;53063;39.614;8.814;2023-11-21T04:27:46;13.70;99.90
66271;DHT22;53063;39.614;8.814;2023-11-21T04:30:13;13.60;99.90
66271;DHT22;53063;39.614;8.814;2023-11-21T04:32:39;13.50;99.90
66271;DHT22;53063;39.614;8.814;2023-11-21T04:35:05;13.60;99.90
66271;DHT22;53063;39.614;8.814;2023-11-21T04:37:31;13.60;99.90
66271;DHT22;53063;39.614;8.814;2023-11-21T04:39:57;13.70;99.90
66271;DHT22;53063;39.614;8.814;2023-11-21T04:42:23;13.70;99.90
66271;DHT22;53063;39.614;8.814;2023-11-21T04:44:49;13.70;99.90
66271;DHT22;53063;39.614;8.814;2023-11-21T04:47:15;13.70;99.90
66271;DHT22;53063;39.614;8.814;2023-11-21T04:49:42;13.60;99.90
66271;DHT22;53063;39.614;8.814;2023-11-21T04:52:09;13.50;99.90
66271;DHT22;53063;39.614;8.814;2023-11-21T04:54:35;13.60;99.90
66271;DHT22;53063;39.614;8.814;2023-11-21T04:57:02;13.50;99.90
66271;DHT22;53063;39.614;8.814;2023-11-21T04:59:27;13.50;99.90
66271;DHT22;53063;39.614;8.814;2023-11-21T05:01:54;13.50;99.90
66271;DHT22;53063;39.614;8.814;2023-11-21T05:04:20;13.30;99.90
66271;DHT22;53063;39.614;8.814;2023-11-21T05:06:48;13.30;99.90
66271;DHT22;53063;39.614;8.814;2023-11-21T05:09:14;13.20;99.90
66271;DHT22;53063;39.614;8.814;2023-11-21T05:11:41;13.10;99.90
66271;DHT22;53063;39.614;8.814;2023-11-21T05:14:07;13.00;99.90
66271;DHT22;53063;39.614;8.814;2023-11-21T05:16:34;13.00;99.90
66271;DHT22;53063;39.614;8.814;2023-11-21T05:19:01;13.00;99.90
66271;DHT22;53063;39.614;8.814;2023-11-21T05:21:27;13.00;99.90
66271;DHT22;53063;39.614;8.814;2023-11-21T05:23:53;13.00;99.90
66271;DHT22;53063;39.614;8.814;2023-11-21T05:26:19;13.00;99.90
66271;DHT22;53063;39.614;8.814;2023-11-21T05:28:46;13.00;99.90
66271;DHT22;53063;39.614;8.814;2023-11-21T05:31:11;13.00;99.90
66271;DHT22;53063;39.614;8.814;2023-11-21T05:33:37;12.90;99.90
66271;DHT22;53063;39.614;8.814;2023-11-21T05:36:03;12.90;99.90
66271;DHT22;53063;39.614;8.814;2023-11-21T05:38:29;12.90;99.90
66271;DHT22;53063;39.614;8.814;2023-11-21T05:40:55;12.90;99.90
66271;DHT22;53063;39.614;8.814;2023-11-21T05:43:21;13.00;99.90
66271;DHT22;53063;39.614;8.814;2023-11-21T05:45:47;12.90;99.90
66271;DHT22;53063;39.614;8.814;2023-11-21T05:48:13;12.80;99.90
66271;DHT22;53063;39.614;8.814;2023-11-21T05:50:39;12.80;99.90
66271;DHT22;53063;39.614;8.814;2023-11-21T05:53:05;12.90;99.90
66271;DHT22;53063;39.614;8.814;2023-11-21T05:55:31;13.00;99.90
66271;DHT22;53063;39.614;8.814;2023-11-21T05:57:56;12.90;99.90
66271;DHT22;53063;39.614;8.814;2023-11-21T06:00:22;12.90;99.90
66271;DHT22;53063;39.614;8.814;2023-11-21T06:02:52;12.80;99.90
66271;DHT22;53063;39.614;8.814;2023-11-21T06:05:23;12.70;99.90
66271;DHT22;53063;39.614;8.814;2023-11-21T06:07:50;12.80;99.90
66271;DHT22;53063;39.614;8.814;2023-11-21T06:10:16;12.90;99.90
66271;DHT22;53063;39.614;8.814;2023-11-21T06:12:43;12.90;99.90
66271;DHT22;53063;39.614;8.814;2023-11-21T06:15:10;13.00;99.90
66271;DHT22;53063;39.614;8.814;2023-11-21T06:17:39;13.10;99.90
66271;DHT22;53063;39.614;8.814;2023-11-21T06:20:07;13.10;99.90
66271;DHT22;53063;39.614;8.814;2023-11-21T06:22:47;13.30;99.90
66271;DHT22;53063;39.614;8.814;2023-11-21T06:25:14;13.10;99.90
66271;DHT22;53063;39.614;8.814;2023-11-21T06:27:41;13.10;99.90
66271;DHT22;53063;39.614;8.814;2023-11-21T06:30:07;13.00;99.90
66271;DHT22;53063;39.614;8.814;2023-11-21T06:32:38;13.00;99.90
66271;DHT22;53063;39.614;8.814;2023-11-21T06:35:06;13.00;99.90
66271;DHT22;53063;39.614;8.814;2023-11-21T06:37:32;13.00;99.90
66271;DHT22;53063;39.614;8.814;2023-11-21T06:39:59;13.00;99.90
66271;DHT22;53063;39.614;8.814;2023-11-21T06:42:25;13.00;99.90
66271;DHT22;53063;39.614;8.814;2023-11-21T06:44:51;13.10;99.90
66271;DHT22;53063;39.614;8.814;2023-11-21T06:47:19;13.10;99.90
66271;DHT22;53063;39.614;8.814;2023-11-21T06:49:51;13.10;99.90
66271;DHT22;53063;39.614;8.814;2023-11-21T06:52:17;13.20;99.90
66271;DHT22;53063;39.614;8.814;2023-11-21T06:54:44;13.20;99.90
66271;DHT22;53063;39.614;8.814;2023-11-21T06:57:11;13.10;99.90
66271;DHT22;53063;39.614;8.814;2023-11-21T06:59:37;13.10;99.90
66271;DHT22;53063;39.614;8.814;2023-11-21T07:02:03;13.20;99.90
66271;DHT22;53063;39.614;8.814;2023-11-21T07:04:33;13.30;99.90
66271;DHT22;53063;39.614;8.814;2023-11-21T07:06:59;13.50;99.90
66271;DHT22;53063;39.614;8.814;2023-11-21T07:09:25;13.90;99.90
66271;DHT22;53063;39.614;8.814;2023-11-21T07:11:52;14.30;99.90
66271;DHT22;53063;39.614;8.814;2023-11-21T07:14:18;14.60;99.90
66271;DHT22;53063;39.614;8.814;2023-11-21T07:16:46;14.70;99.90
66271;DHT22;53063;39.614;8.814;2023-11-21T07:19:12;14.90;99.90
66271;DHT22;53063;39.614;8.814;2023-11-21T07:21:39;15.20;99.90
66271;DHT22;53063;39.614;8.814;2023-11-21T07:24:06;15.70;99.90
66271;DHT22;53063;39.614;8.814;2023-11-21T07:26:33;16.60;99.90
66271;DHT22;53063;39.614;8.814;2023-11-21T07:29:00;18.10;99.90
66271;DHT22;53063;39.614;8.814;2023-11-21T07:31:26;18.30;99.90
66271;DHT22;53063;39.614;8.814;2023-11-21T07:33:52;18.20;99.90
66271;DHT22;53063;39.614;8.814;2023-11-21T07:36:19;19.20;99.90
66271;DHT22;53063;39.614;8.814;2023-11-21T07:38:46;19.90;99.90
66271;DHT22;53063;39.614;8.814;2023-11-21T07:41:12;19.40;99.90
66271;DHT22;53063;39.614;8.814;2023-11-21T07:43:41;18.80;99.90
66271;DHT22;53063;39.614;8.814;2023-11-21T07:46:08;18.40;99.90
66271;DHT22;53063;39.614;8.814;2023-11-21T07:48:34;17.90;99.90
66271;DHT22;53063;39.614;8.814;2023-11-21T07:51:02;17.50;99.90
66271;DHT22;53063;39.614;8.814;2023-11-21T07:53:29;17.20;99.90
66271;DHT22;53063;39.614;8.814;2023-11-21T07:56:08;17.50;99.90
66271;DHT22;53063;39.614;8.814;2023-11-21T07:58:35;17.30;99.90
66271;DHT22;53063;39.614;8.814;2023-11-21T08:01:01;17.00;99.90
66271;DHT22;53063;39.614;8.814;2023-11-21T08:03:27;16.70;99.90
66271;DHT22;53063;39.614;8.814;2023-11-21T08:05:55;16.40;99.90
66271;DHT22;53063;39.614;8.814;2023-11-21T08:08:22;16.30;99.90
66271;DHT22;53063;39.614;8.814;2023-11-21T08:10:47;16.20;99.90
66271;DHT22;53063;39.614;8.814;2023-11-21T08:13:14;16.10;99.90
66271;DHT22;53063;39.614;8.814;2023-11-21T08:15:42;16.00;99.90
66271;DHT22;53063;39.614;8.814;2023-11-21T08:18:12;16.00;99.90
66271;DHT22;53063;39.614;8.814;2023-11-21T08:20:39;16.00;99.90
66271;DHT22;53063;39.614;8.814;2023-11-21T08:23:05;16.10;99.90
66271;DHT22;53063;39.614;8.814;2023-11-21T08:25:32;16.20;99.90
66271;DHT22;53063;39.614;8.814;2023-11-21T08:27:59;16.30;99.90
66271;DHT22;53063;39.614;8.814;2023-11-21T08:30:25;16.40;99.90
66271;DHT22;53063;39.614;8.814;2023-11-21T08:32:51;16.50;99.90
66271;DHT22;53063;39.614;8.814;2023-11-21T08:35:19;16.90;99.90
66271;DHT22;53063;39.614;8.814;2023-11-21T08:37:45;18.30;99.90
66271;DHT22;53063;39.614;8.814;2023-11-21T08:40:12;18.90;99.90
66271;DHT22;53063;39.614;8.814;2023-11-21T08:42:42;19.30;99.90
66271;DHT22;53063;39.614;8.814;2023-11-21T08:45:09;19.20;99.90
66271;DHT22;53063;39.614;8.814;2023-11-21T08:47:35;19.90;99.90
66271;DHT22;53063;39.614;8.814;2023-11-21T08:50:02;21.60;99.90
66271;DHT22;53063;39.614;8.814;2023-11-21T08:52:28;22.90;97.40
66271;DHT22;53063;39.614;8.814;2023-11-21T08:54:54;22.00;90.80
66271;DHT22;53063;39.614;8.814;2023-11-21T08:57:23;20.00;98.60
66271;DHT22;53063;39.614;8.814;2023-11-21T08:59:49;19.10;99.90
66271;DHT22;53063;39.614;8.814;2023-11-21T09:02:21;18.60;99.90
66271;DHT22;53063;39.614;8.814;2023-11-21T09:04:50;18.30;99.90
66271;DHT22;53063;39.614;8.814;2023-11-21T09:07:19;18.60;99.90
66271;DHT22;53063;39.614;8.814;2023-11-21T09:09:46;20.30;99.90
66271;DHT22;53063;39.614;8.814;2023-11-21T09:12:13;20.60;99.90
66271;DHT22;53063;39.614;8.814;2023-11-21T09:14:39;19.90;99.90
66271;DHT22;53063;39.614;8.814;2023-11-21T09:17:06;19.00;99.90
66271;DHT22;53063;39.614;8.814;2023-11-21T09:19:40;19.00;99.90
66271;DHT22;53063;39.614;8.814;2023-11-21T09:22:06;20.70;99.90
66271;DHT22;53063;39.614;8.814;2023-11-21T09:24:33;23.40;92.40
66271;DHT22;53063;39.614;8.814;2023-11-21T09:26:59;25.80;81.60
66271;DHT22;53063;39.614;8.814;2023-11-21T09:29:26;25.80;73.30
66271;DHT22;53063;39.614;8.814;2023-11-21T09:31:52;23.90;79.30
66271;DHT22;53063;39.614;8.814;2023-11-21T09:34:20;26.90;70.70
66271;DHT22;53063;39.614;8.814;2023-11-21T09:36:47;27.40;64.10
66271;DHT22;53063;39.614;8.814;2023-11-21T09:39:13;28.60;63.00
66271;DHT22;53063;39.614;8.814;2023-11-21T09:41:51;29.90;58.10
66271;DHT22;53063;39.614;8.814;2023-11-21T09:44:44;31.20;53.20
66271;DHT22;53063;39.614;8.814;2023-11-21T09:47:14;31.90;50.80
66271;DHT22;53063;39.614;8.814;2023-11-21T09:49:47;31.80;48.50
66271;DHT22;53063;39.614;8.814;2023-11-21T09:52:22;31.90;48.00
66271;DHT22;53063;39.614;8.814;2023-11-21T09:54:51;32.00;47.50
66271;DHT22;53063;39.614;8.814;2023-11-21T09:57:23;32.10;46.60
66271;DHT22;53063;39.614;8.814;2023-11-21T09:59:51;32.20;47.00
66271;DHT22;53063;39.614;8.814;2023-11-21T10:02:23;32.30;45.00
66271;DHT22;53063;39.614;8.814;2023-11-21T10:04:52;33.30;41.30
66271;DHT22;53063;39.614;8.814;2023-11-21T10:07:19;33.20;42.00
66271;DHT22;53063;39.614;8.814;2023-11-21T10:09:46;31.80;43.00
66271;DHT22;53063;39.614;8.814;2023-11-21T10:12:17;27.50;50.10
66271;DHT22;53063;39.614;8.814;2023-11-21T10:14:43;24.60;60.70
66271;DHT22;53063;39.614;8.814;2023-11-21T10:17:14;23.50;63.20
66271;DHT22;53063;39.614;8.814;2023-11-21T10:19:46;22.60;66.90
66271;DHT22;53063;39.614;8.814;2023-11-21T10:22:14;21.90;70.10
66271;DHT22;53063;39.614;8.814;2023-11-21T10:24:41;21.70;73.10
66271;DHT22;53063;39.614;8.814;2023-11-21T10:27:09;21.90;74.80
66271;DHT22;53063;39.614;8.814;2023-11-21T10:29:35;22.20;73.60
66271;DHT22;53063;39.614;8.814;2023-11-21T10:32:04;21.50;76.10
66271;DHT22;53063;39.614;8.814;2023-11-21T10:34:31;21.00;79.40
66271;DHT22;53063;39.614;8.814;2023-11-21T10:36:57;23.70;72.40
66271;DHT22;53063;39.614;8.814;2023-11-21T10:39:24;29.90;50.00
66271;DHT22;53063;39.614;8.814;2023-11-21T10:41:56;31.20;44.40
66271;DHT22;53063;39.614;8.814;2023-11-21T10:44:22;30.50;44.20
66271;DHT22;53063;39.614;8.814;2023-11-21T10:46:53;27.40;48.00
66271;DHT22;53063;39.614;8.814;2023-11-21T10:49:26;24.70;58.80
66271;DHT22;53063;39.614;8.814;2023-11-21T10:51:53;24.30;58.10
66271;DHT22;53063;39.614;8.814;2023-11-21T10:54:20;22.90;64.10
66271;DHT22;53063;39.614;8.814;2023-11-21T10:56:49;21.80;68.20
66271;DHT22;53063;39.614;8.814;2023-11-21T10:59:17;19.90;81.70
66271;DHT22;53063;39.614;8.814;2023-11-21T11:01:45;19.00;92.50
66271;DHT22;53063;39.614;8.814;2023-11-21T11:04:14;18.40;99.70
66271;DHT22;53063;39.614;8.814;2023-11-21T11:06:43;18.00;99.90
66271;DHT22;53063;39.614;8.814;2023-11-21T11:09:12;17.90;99.90
66271;DHT22;53063;39.614;8.814;2023-11-21T11:11:42;17.80;99.90
66271;DHT22;53063;39.614;8.814;2023-11-21T11:14:13;17.90;99.90
66271;DHT22;53063;39.614;8.814;2023-11-21T11:16:40;17.90;99.90
66271;DHT22;53063;39.614;8.814;2023-11-21T11:19:10;17.90;99.90
66271;DHT22;53063;39.614;8.814;2023-11-21T11:32:43;18.40;94.70
66271;DHT22;53063;39.614;8.814;2023-11-21T11:35:17;19.30;87.00
66271;DHT22;53063;39.614;8.814;2023-11-21T11:37:44;19.70;84.30
66271;DHT22;53063;39.614;8.814;2023-11-21T11:40:13;19.20;83.80
66271;DHT22;53063;39.614;8.814;2023-11-21T11:42:56;19.10;84.30
66271;DHT22;53063;39.614;8.814;2023-11-21T11:45:32;19.70;83.10
66271;DHT22;53063;39.614;8.814;2023-11-21T11:48:00;20.10;80.60
66271;DHT22;53063;39.614;8.814;2023-11-21T11:50:26;20.00;75.80
66271;DHT22;53063;39.614;8.814;2023-11-21T11:52:53;19.80;72.60
66271;DHT22;53063;39.614;8.814;2023-11-21T11:55:24;20.00;71.80
66271;DHT22;53063;39.614;8.814;2023-11-21T11:57:52;20.20;70.20
66271;DHT22;53063;39.614;8.814;2023-11-21T12:02:58;20.20;69.60
66271;DHT22;53063;39.614;8.814;2023-11-21T12:05:27;20.30;67.90
66271;DHT22;53063;39.614;8.814;2023-11-21T12:07:54;20.40;68.30
66271;DHT22;53063;39.614;8.814;2023-11-21T12:10:25;20.50;66.10
66271;DHT22;53063;39.614;8.814;2023-11-21T12:12:58;20.50;65.40
66271;DHT22;53063;39.614;8.814;2023-11-21T12:15:25;20.40;66.10
66271;DHT22;53063;39.614;8.814;2023-11-21T12:17:52;20.30;68.10
66271;DHT22;53063;39.614;8.814;2023-11-21T12:20:23;20.60;67.10
66271;DHT22;53063;39.614;8.814;2023-11-21T12:22:53;20.30;66.30
66271;DHT22;53063;39.614;8.814;2023-11-21T12:27:48;20.10;67.60
66271;DHT22;53063;39.614;8.814;2023-11-21T12:30:16;20.20;65.40
66271;DHT22;53063;39.614;8.814;2023-11-21T12:32:43;20.20;64.00
66271;DHT22;53063;39.614;8.814;2023-11-21T12:35:12;20.10;65.20
66271;DHT22;53063;39.614;8.814;2023-11-21T12:37:39;20.00;67.20
66271;DHT22;53063;39.614;8.814;2023-11-21T12:40:06;20.10;67.90
66271;DHT22;53063;39.614;8.814;2023-11-21T12:42:52;19.80;69.60
66271;DHT22;53063;39.614;8.814;2023-11-21T12:45:23;19.30;70.40
66271;DHT22;53063;39.614;8.814;2023-11-21T12:50:19;19.00;73.10
66271;DHT22;53063;39.614;8.814;2023-11-21T12:52:52;19.00;73.20
66271;DHT22;53063;39.614;8.814;2023-11-21T12:55:23;18.80;73.40
66271;DHT22;53063;39.614;8.814;2023-11-21T12:57:50;19.10;74.20
66271;DHT22;53063;39.614;8.814;2023-11-21T13:00:19;19.10;73.50
66271;DHT22;53063;39.614;8.814;2023-11-21T13:02:57;19.00;73.50
66271;DHT22;53063;39.614;8.814;2023-11-21T13:05:29;18.60;72.90
66271;DHT22;53063;39.614;8.814;2023-11-21T13:07:57;18.60;73.80
66271;DHT22;53063;39.614;8.814;2023-11-21T13:10:25;18.20;75.10
66271;DHT22;53063;39.614;8.814;2023-11-21T13:13:01;18.10;77.10
66271;DHT22;53063;39.614;8.814;2023-11-21T13:15:29;17.90;79.70
66271;DHT22;53063;39.614;8.814;2023-11-21T13:17:57;17.90;79.30
66271;DHT22;53063;39.614;8.814;2023-11-21T13:20:26;18.30;77.90
66271;DHT22;53063;39.614;8.814;2023-11-21T13:22:54;18.50;76.20
66271;DHT22;53063;39.614;8.814;2023-11-21T13:25:23;18.20;76.60
66271;DHT22;53063;39.614;8.814;2023-11-21T13:27:50;17.90;77.90
66271;DHT22;53063;39.614;8.814;2023-11-21T13:30:16;17.70;79.70
66271;DHT22;53063;39.614;8.814;2023-11-21T13:32:46;17.50;79.90
66271;DHT22;53063;39.614;8.814;2023-11-21T13:35:12;17.40;83.10
66271;DHT22;53063;39.614;8.814;2023-11-21T13:37:48;17.40;83.80
66271;DHT22;53063;39.614;8.814;2023-11-21T13:40:20;17.20;85.00
66271;DHT22;53063;39.614;8.814;2023-11-21T13:42:52;17.20;86.00
66271;DHT22;53063;39.614;8.814;2023-11-21T13:45:23;17.20;84.80
66271;DHT22;53063;39.614;8.814;2023-11-21T13:47:52;17.40;83.90
66271;DHT22;53063;39.614;8.814;2023-11-21T13:50:26;17.50;84.10
66271;DHT22;53063;39.614;8.814;2023-11-21T13:53:02;17.90;81.00
66271;DHT22;53063;39.614;8.814;2023-11-21T13:55:53;18.00;80.50
66271;DHT22;53063;39.614;8.814;2023-11-21T13:58:21;18.00;78.40
66271;DHT22;53063;39.614;8.814;2023-11-21T14:01:05;17.50;77.70
66271;DHT22;53063;39.614;8.814;2023-11-21T14:03:39;17.40;79.20
66271;DHT22;53063;39.614;8.814;2023-11-21T14:06:16;17.20;77.40
66271;DHT22;53063;39.614;8.814;2023-11-21T14:08:49;16.80;78.10
66271;DHT22;53063;39.614;8.814;2023-11-21T14:11:14;16.70;78.60
66271;DHT22;53063;39.614;8.814;2023-11-21T14:13:44;16.80;79.20
66271;DHT22;53063;39.614;8.814;2023-11-21T14:16:15;16.70;79.50
66271;DHT22;53063;39.614;8.814;2023-11-21T14:18:45;16.70;81.60
66271;DHT22;53063;39.614;8.814;2023-11-21T14:21:27;16.60;81.10
66271;DHT22;53063;39.614;8.814;2023-11-21T14:23:53;16.50;82.00
66271;DHT22;53063;39.614;8.814;2023-11-21T14:26:22;16.60;81.60
66271;DHT22;53063;39.614;8.814;2023-11-21T14:28:51;16.50;82.10
66271;DHT22;53063;39.614;8.814;2023-11-21T14:31:18;16.50;82.20
66271;DHT22;53063;39.614;8.814;2023-11-21T14:33:44;16.40;84.50
66271;DHT22;53063;39.614;8.814;2023-11-21T14:36:11;16.20;87.70
66271;DHT22;53063;39.614;8.814;2023-11-21T14:38:37;16.20;89.60
66271;DHT22;53063;39.614;8.814;2023-11-21T14:41:05;16.10;91.80
66271;DHT22;53063;39.614;8.814;2023-11-21T14:43:34;15.80;93.70
66271;DHT22;53063;39.614;8.814;2023-11-21T14:46:02;15.60;96.50
66271;DHT22;53063;39.614;8.814;2023-11-21T14:48:29;15.60;98.20
66271;DHT22;53063;39.614;8.814;2023-11-21T14:51:11;15.60;99.40
66271;DHT22;53063;39.614;8.814;2023-11-21T14:53:49;15.50;99.90
66271;DHT22;53063;39.614;8.814;2023-11-21T14:56:27;15.50;99.90
66271;DHT22;53063;39.614;8.814;2023-11-21T14:58:57;15.50;99.90
66271;DHT22;53063;39.614;8.814;2023-11-21T15:01:24;15.30;99.90
66271;DHT22;53063;39.614;8.814;2023-11-21T15:04:11;15.40;99.90
66271;DHT22;53063;39.614;8.814;2023-11-21T15:07:04;15.40;99.90
66271;DHT22;53063;39.614;8.814;2023-11-21T15:09:31;15.30;99.90
66271;DHT22;53063;39.614;8.814;2023-11-21T15:11:57;15.20;99.90
66271;DHT22;53063;39.614;8.814;2023-11-21T15:14:29;15.20;99.90
66271;DHT22;53063;39.614;8.814;2023-11-21T15:16:58;15.20;99.90
66271;DHT22;53063;39.614;8.814;2023-11-21T15:19:26;15.20;99.90
66271;DHT22;53063;39.614;8.814;2023-11-21T15:21:54;15.20;99.90
66271;DHT22;53063;39.614;8.814;2023-11-21T15:24:20;15.10;99.90
66271;DHT22;53063;39.614;8.814;2023-11-21T15:26:46;15.20;99.90
66271;DHT22;53063;39.614;8.814;2023-11-21T15:29:12;15.20;99.90
66271;DHT22;53063;39.614;8.814;2023-11-21T15:31:39;15.20;99.90
66271;DHT22;53063;39.614;8.814;2023-11-21T15:34:10;15.20;99.90
66271;DHT22;53063;39.614;8.814;2023-11-21T15:36:36;15.20;99.90
66271;DHT22;53063;39.614;8.814;2023-11-21T15:39:02;15.10;99.90
66271;DHT22;53063;39.614;8.814;2023-11-21T15:41:28;15.00;99.90
66271;DHT22;53063;39.614;8.814;2023-11-21T15:43:54;15.10;99.90
66271;DHT22;53063;39.614;8.814;2023-11-21T15:46:21;15.00;99.90
66271;DHT22;53063;39.614;8.814;2023-11-21T15:48:47;15.00;99.90
66271;DHT22;53063;39.614;8.814;2023-11-21T15:51:20;14.90;99.90
66271;DHT22;53063;39.614;8.814;2023-11-21T15:53:46;15.00;99.90